createdAt,value
2018-11-02T00:01:35.564Z,99.90
2018-11-02T00:04:04.535Z,99.90
2018-11-02T00:06:38.082Z,99.90
2018-11-02T00:09:08.804Z,99.90
2018-11-02T00:11:38.688Z,99.90
2018-11-02T00:14:08.061Z,99.90
2018-11-02T00:16:36.995Z,99.90
2018-11-02T00:19:06.151Z,99.90
2018-11-02T00:21:37.763Z,99.90
2018-11-02T00:24:07.463Z,99.90
2018-11-02T00:26:39.152Z,99.90
2018-11-02T00:29:08.743Z,99.90
2018-11-02T00:31:42.892Z,99.90
2018-11-02T00:34:11.983Z,99.90
2018-11-02T00:36:41.144Z,99.90
2018-11-02T00:39:10.584Z,99.90
2018-11-02T00:41:39.762Z,99.90
2018-11-02T00:44:11.915Z,99.90
2018-11-02T00:46:43.157Z,99.90
2018-11-02T00:49:13.901Z,99.90
2018-11-02T00:51:46.453Z,99.90
2018-11-02T00:54:16.023Z,99.90
2018-11-02T00:56:46.160Z,99.90
2018-11-02T01:00:17.855Z,99.90
2018-11-02T01:02:46.784Z,99.90
2018-11-02T01:05:15.731Z,99.90
2018-11-02T01:07:44.739Z,99.90
2018-11-02T01:10:13.700Z,99.90
2018-11-02T01:12:42.667Z,99.90
2018-11-02T01:15:11.592Z,99.90
2018-11-02T01:17:40.545Z,99.90
2018-11-02T01:20:11.783Z,99.90
2018-11-02T01:22:40.751Z,99.90
2018-11-02T01:25:09.956Z,99.90
2018-11-02T01:27:38.854Z,99.90
2018-11-02T01:30:07.788Z,99.90
2018-11-02T01:32:36.776Z,99.90
2018-11-02T01:35:06.662Z,99.90
2018-11-02T01:37:35.630Z,99.90
2018-11-02T01:40:04.884Z,99.90
2018-11-02T01:42:33.803Z,99.90
2018-11-02T01:45:02.840Z,99.90
2018-11-02T01:47:31.820Z,99.90
2018-11-02T01:50:00.767Z,99.90
2018-11-02T01:52:29.715Z,99.90
2018-11-02T01:54:59.132Z,99.90
2018-11-02T01:57:28.166Z,99.90
2018-11-02T01:59:57.134Z,99.90
2018-11-02T02:02:26.075Z,99.90
2018-11-02T02:04:55.031Z,99.90
2018-11-02T02:07:24.008Z,99.90
2018-11-02T02:09:53.012Z,99.90
2018-11-02T02:12:21.978Z,99.90
2018-11-02T02:14:50.971Z,99.90
2018-11-02T02:17:20.303Z,99.90
2018-11-02T02:19:49.392Z,99.90
2018-11-02T02:22:20.687Z,99.90
2018-11-02T02:24:51.258Z,99.90
2018-11-02T02:27:20.255Z,99.90
2018-11-02T02:29:49.233Z,99.90
2018-11-02T02:32:18.192Z,99.90
2018-11-02T02:34:47.166Z,99.90
2018-11-02T02:37:16.131Z,99.90
2018-11-02T02:39:45.110Z,99.90
2018-11-02T02:42:14.055Z,99.90
2018-11-02T02:44:43.529Z,99.90
2018-11-02T02:47:13.371Z,99.90
2018-11-02T02:49:42.322Z,99.90
2018-11-02T02:52:11.261Z,99.90
2018-11-02T02:54:40.241Z,99.90
2018-11-02T02:57:09.216Z,99.90
2018-11-02T02:59:38.213Z,99.90
2018-11-02T03:02:07.171Z,99.90
2018-11-02T03:04:36.095Z,99.90
2018-11-02T03:07:05.105Z,99.90
2018-11-02T03:12:18.415Z,99.90
2018-11-02T03:14:48.707Z,99.90
2018-11-02T03:17:17.662Z,99.90
2018-11-02T03:19:47.002Z,99.90
2018-11-02T03:22:22.252Z,99.90
2018-11-02T03:24:51.242Z,99.90
2018-11-02T03:27:20.245Z,99.90
2018-11-02T03:29:49.181Z,99.90
2018-11-02T03:32:18.112Z,99.90
2018-11-02T03:34:47.069Z,99.90
2018-11-02T03:37:16.015Z,99.90
2018-11-02T03:39:45.555Z,99.90
2018-11-02T03:42:14.560Z,99.90
2018-11-02T03:44:43.513Z,99.90
2018-11-02T03:47:12.931Z,99.90
2018-11-02T03:49:42.269Z,99.90
2018-11-02T03:52:11.192Z,99.90
2018-11-02T03:54:40.146Z,99.90
2018-11-02T03:57:09.093Z,99.90
2018-11-02T03:59:38.085Z,99.90
2018-11-02T04:02:07.508Z,99.90
2018-11-02T04:04:36.490Z,99.90
2018-11-02T04:07:06.158Z,99.90
2018-11-02T04:09:42.525Z,99.90
2018-11-02T04:12:22.835Z,99.90
2018-11-02T04:14:56.575Z,99.90
2018-11-02T04:20:23.001Z,99.90
2018-11-02T04:23:01.163Z,99.90
2018-11-02T04:25:36.708Z,99.90
2018-11-02T04:28:14.061Z,99.90
2018-11-02T04:31:02.203Z,99.90
2018-11-02T04:33:43.447Z,99.90
2018-11-02T04:36:13.406Z,99.90
2018-11-02T04:38:42.350Z,99.90
2018-11-02T04:41:11.304Z,99.90
2018-11-02T04:43:40.279Z,99.90
2018-11-02T04:46:09.230Z,99.90
2018-11-02T04:48:38.183Z,99.90
2018-11-02T04:51:07.712Z,99.90
2018-11-02T04:53:39.594Z,99.90
2018-11-02T04:56:08.591Z,99.90
2018-11-02T04:58:37.531Z,99.90
2018-11-02T05:01:07.245Z,99.90
2018-11-02T05:03:36.230Z,99.90
2018-11-02T05:06:05.169Z,99.90
2018-11-02T05:08:34.117Z,99.90
2018-11-02T05:11:03.103Z,99.90
2018-11-02T05:13:32.085Z,99.90
2018-11-02T05:16:01.035Z,99.90
2018-11-02T05:18:30.139Z,99.90
2018-11-02T05:20:59.926Z,99.90
2018-11-02T05:23:28.834Z,99.90
2018-11-02T05:26:09.603Z,99.90
2018-11-02T05:28:40.159Z,99.90
2018-11-02T05:31:17.543Z,99.90
2018-11-02T05:33:46.497Z,99.90
2018-11-02T05:36:15.492Z,99.90
2018-11-02T05:38:44.458Z,99.90
2018-11-02T05:41:13.416Z,99.90
2018-11-02T05:43:42.349Z,99.90
2018-11-02T05:46:11.281Z,99.90
2018-11-02T05:48:40.270Z,99.90
2018-11-02T05:51:10.237Z,99.90
2018-11-02T05:53:39.187Z,99.90
2018-11-02T05:56:08.570Z,99.90
2018-11-02T05:58:37.519Z,99.90
2018-11-02T06:01:06.762Z,99.90
2018-11-02T06:03:35.696Z,99.90
2018-11-02T06:06:04.752Z,99.90
2018-11-02T06:08:33.696Z,99.90
2018-11-02T06:11:02.637Z,99.90
2018-11-02T06:13:31.730Z,99.90
2018-11-02T06:16:00.579Z,99.90
2018-11-02T06:18:29.521Z,99.90
2018-11-02T06:20:58.454Z,99.90
2018-11-02T06:23:27.415Z,99.90
2018-11-02T06:25:56.375Z,99.90
2018-11-02T06:28:25.283Z,99.90
2018-11-02T06:30:54.235Z,99.90
2018-11-02T06:33:23.256Z,99.90
2018-11-02T06:35:54.126Z,99.90
2018-11-02T06:38:23.109Z,99.90
2018-11-02T06:40:52.254Z,99.90
2018-11-02T06:43:21.221Z,99.90
2018-11-02T06:45:50.131Z,99.90
2018-11-02T06:48:19.655Z,99.90
2018-11-02T06:50:48.655Z,99.90
2018-11-02T06:53:17.678Z,99.90
2018-11-02T06:55:46.630Z,99.90
2018-11-02T06:58:15.605Z,99.90
2018-11-02T07:00:44.539Z,99.90
2018-11-02T07:03:13.536Z,99.90
2018-11-02T07:05:42.529Z,99.90
2018-11-02T07:08:11.656Z,99.90
2018-11-02T07:10:40.526Z,99.90
2018-11-02T07:13:09.494Z,99.90
2018-11-02T07:15:38.442Z,99.90
2018-11-02T07:18:07.378Z,99.90
2018-11-02T07:20:36.288Z,99.90
2018-11-02T07:23:06.379Z,99.90
2018-11-02T07:25:35.304Z,99.90
2018-11-02T07:28:04.251Z,99.90
2018-11-02T07:30:33.186Z,99.90
2018-11-02T07:33:02.088Z,99.90
2018-11-02T07:35:31.024Z,99.90
2018-11-02T07:37:59.954Z,99.90
2018-11-02T07:40:28.919Z,99.90
2018-11-02T07:42:57.832Z,99.90
2018-11-02T07:45:26.809Z,99.90
2018-11-02T07:47:55.728Z,99.90
2018-11-02T07:50:24.668Z,99.90
2018-11-02T07:52:53.723Z,99.90
2018-11-02T07:55:22.640Z,99.90
2018-11-02T07:57:51.639Z,99.90
2018-11-02T08:00:20.546Z,99.90
2018-11-02T08:02:49.508Z,99.90
2018-11-02T08:05:18.459Z,99.90
2018-11-02T08:07:47.399Z,99.90
2018-11-02T08:10:16.308Z,99.90
2018-11-02T08:12:45.302Z,99.90
2018-11-02T08:15:14.237Z,99.90
2018-11-02T08:17:43.305Z,99.90
2018-11-02T08:20:13.159Z,99.90
2018-11-02T08:22:42.662Z,99.90
2018-11-02T08:25:12.994Z,99.90
2018-11-02T08:27:42.290Z,99.90
2018-11-02T08:30:12.003Z,99.90
2018-11-02T08:32:41.029Z,99.90
2018-11-02T08:35:11.848Z,99.90
2018-11-02T08:37:41.142Z,99.90
2018-11-02T08:40:11.360Z,99.90
2018-11-02T08:42:40.321Z,99.90
2018-11-02T08:45:09.844Z,99.90
2018-11-02T08:47:38.900Z,99.90
2018-11-02T08:50:09.046Z,99.90
2018-11-02T08:52:38.544Z,99.90
2018-11-02T08:55:07.658Z,99.90
2018-11-02T08:57:36.822Z,99.90
2018-11-02T09:00:06.884Z,99.90
2018-11-02T09:02:35.799Z,99.90
2018-11-02T09:05:04.811Z,99.90
2018-11-02T09:07:33.727Z,99.90
2018-11-02T09:10:02.650Z,99.90
2018-11-02T09:12:31.682Z,99.90
2018-11-02T09:15:00.615Z,99.90
2018-11-02T09:17:29.579Z,99.90
2018-11-02T09:19:58.498Z,99.90
2018-11-02T09:22:27.427Z,99.90
2018-11-02T09:24:56.349Z,99.90
2018-11-02T09:27:25.308Z,99.90
2018-11-02T09:29:54.638Z,99.90
2018-11-02T09:32:23.547Z,99.90
2018-11-02T09:34:52.470Z,99.90
2018-11-02T09:37:21.396Z,99.90
2018-11-02T09:39:50.321Z,99.90
2018-11-02T09:42:19.317Z,99.90
2018-11-02T09:44:48.273Z,99.90
2018-11-02T09:47:17.216Z,99.90
2018-11-02T09:49:46.146Z,99.90
2018-11-02T09:52:15.083Z,99.90
2018-11-02T09:54:44.064Z,99.90
2018-11-02T09:57:13.002Z,99.90
2018-11-02T09:59:41.948Z,99.90
2018-11-02T10:02:11.095Z,99.90
2018-11-02T10:04:39.943Z,99.90
2018-11-02T10:07:11.988Z,99.90
2018-11-02T10:09:42.236Z,99.90
2018-11-02T10:12:11.200Z,99.90
2018-11-02T10:14:40.438Z,99.90
2018-11-02T10:17:09.430Z,99.90
2018-11-02T10:19:38.358Z,99.90
2018-11-02T10:22:07.323Z,99.90
2018-11-02T10:24:36.310Z,99.90
2018-11-02T10:27:05.339Z,99.90
2018-11-02T10:29:34.906Z,99.90
2018-11-02T10:32:03.835Z,99.90
2018-11-02T10:34:32.843Z,99.90
2018-11-02T10:37:01.795Z,99.90
2018-11-02T10:39:30.780Z,99.90
2018-11-02T10:42:01.039Z,99.90
2018-11-02T10:44:33.039Z,99.90
2018-11-02T10:47:03.675Z,99.90
2018-11-02T10:49:32.775Z,99.90
2018-11-02T10:52:01.730Z,99.90
2018-11-02T10:54:30.689Z,99.90
2018-11-02T10:56:59.624Z,99.90
2018-11-02T10:59:28.564Z,99.90
2018-11-02T11:02:05.517Z,99.90
2018-11-02T11:04:37.215Z,99.90
2018-11-02T11:07:11.379Z,99.90
2018-11-02T11:09:40.323Z,99.90
2018-11-02T11:12:09.393Z,99.90
2018-11-02T11:14:38.259Z,99.90
2018-11-02T11:17:07.187Z,98.30
2018-11-02T11:19:36.100Z,99.90
2018-11-02T11:22:05.363Z,99.90
2018-11-02T11:24:34.309Z,99.90
2018-11-02T11:27:03.274Z,99.90
2018-11-02T11:29:32.221Z,99.90
2018-11-02T11:32:01.145Z,99.90
2018-11-02T11:34:30.088Z,97.80
2018-11-02T11:36:59.035Z,96.40
2018-11-02T11:39:27.994Z,99.00
2018-11-02T11:41:57.715Z,99.90
2018-11-02T11:44:26.641Z,99.90
2018-11-02T11:46:55.615Z,98.20
2018-11-02T11:49:24.555Z,97.10
2018-11-02T11:51:53.507Z,92.50
2018-11-02T11:54:22.484Z,93.10
2018-11-02T11:56:51.687Z,88.80
2018-11-02T11:59:20.619Z,91.40
2018-11-02T12:01:49.542Z,90.70
2018-11-02T12:04:18.530Z,92.50
2018-11-02T12:06:47.670Z,90.70
2018-11-02T12:09:17.615Z,93.50
2018-11-02T12:11:46.575Z,94.40
2018-11-02T12:14:15.510Z,96.30
2018-11-02T12:16:44.455Z,98.80
2018-11-02T12:19:13.396Z,99.30
2018-11-02T12:21:42.370Z,99.90
2018-11-02T12:24:11.287Z,98.50
2018-11-02T12:26:40.228Z,98.00
2018-11-02T12:29:09.204Z,99.80
2018-11-02T12:31:38.160Z,97.80
2018-11-02T12:34:07.095Z,99.90
2018-11-02T12:36:36.034Z,99.90
2018-11-02T12:39:06.612Z,99.90
2018-11-02T12:41:35.532Z,99.90
2018-11-02T12:44:04.430Z,99.30
2018-11-02T12:46:33.371Z,99.90
2018-11-02T12:49:02.452Z,99.90
2018-11-02T12:51:31.364Z,99.90
2018-11-02T12:54:00.296Z,99.90
2018-11-02T12:56:29.222Z,99.90
2018-11-02T12:58:58.171Z,99.90
2018-11-02T13:01:27.114Z,99.90
2018-11-02T13:03:56.055Z,99.90
2018-11-02T13:06:25.012Z,99.90
2018-11-02T13:08:53.942Z,99.90
2018-11-02T13:11:22.895Z,99.90
2018-11-02T13:13:51.928Z,99.90
2018-11-02T13:16:20.847Z,99.90
2018-11-02T13:18:49.872Z,99.90
2018-11-02T13:21:18.820Z,99.90
2018-11-02T13:23:47.791Z,99.90
2018-11-02T13:26:16.833Z,99.90
2018-11-02T13:28:45.683Z,99.90
2018-11-02T13:31:14.649Z,99.90
2018-11-02T13:33:43.610Z,99.90
2018-11-02T13:36:12.559Z,99.90
2018-11-02T13:38:41.520Z,99.90
2018-11-02T13:41:10.469Z,99.90
2018-11-02T13:43:39.611Z,99.90
2018-11-02T13:46:08.920Z,99.90
2018-11-02T13:48:37.867Z,99.90
2018-11-02T13:51:06.923Z,99.90
2018-11-02T13:53:36.253Z,99.90
2018-11-02T13:56:05.171Z,99.90
2018-11-02T13:58:34.092Z,99.90
2018-11-02T14:01:03.055Z,99.90
2018-11-02T14:03:32.551Z,99.90
2018-11-02T14:06:01.521Z,99.90
2018-11-02T14:08:30.521Z,99.90
2018-11-02T14:10:59.454Z,99.90
2018-11-02T14:13:28.400Z,99.90
2018-11-02T14:15:57.363Z,99.90
2018-11-02T14:18:26.383Z,99.90
2018-11-02T14:20:55.280Z,99.90
2018-11-02T14:23:24.236Z,99.90
2018-11-02T14:25:53.163Z,99.90
2018-11-02T14:28:22.100Z,99.90
2018-11-02T14:30:51.045Z,99.90
2018-11-02T14:33:20.254Z,99.90
2018-11-02T14:35:49.174Z,99.90
2018-11-02T14:38:18.136Z,99.90
2018-11-02T14:40:47.110Z,99.90
2018-11-02T14:43:16.038Z,99.80
2018-11-02T14:45:44.966Z,98.40
2018-11-02T14:48:13.911Z,99.90
2018-11-02T14:50:42.828Z,99.90
2018-11-02T14:53:11.895Z,99.90
2018-11-02T14:55:40.826Z,99.90
2018-11-02T14:58:09.779Z,99.90
2018-11-02T15:00:38.715Z,99.90
2018-11-02T15:03:07.626Z,99.90
2018-11-02T15:05:36.558Z,99.90
2018-11-02T15:08:05.903Z,99.60
2018-11-02T15:10:34.813Z,99.90
2018-11-02T15:13:04.014Z,99.90
2018-11-02T15:15:32.986Z,99.90
2018-11-02T15:18:01.985Z,99.90
2018-11-02T15:20:30.902Z,99.90
2018-11-02T15:22:59.843Z,99.90
2018-11-02T15:25:28.784Z,99.90
2018-11-02T15:27:57.707Z,99.90
2018-11-02T15:30:26.652Z,99.90
2018-11-02T15:32:55.658Z,99.90
2018-11-02T15:35:24.600Z,99.90
2018-11-02T15:37:53.523Z,99.90
2018-11-02T15:40:22.455Z,99.90
2018-11-02T15:42:51.436Z,99.90
2018-11-02T15:45:20.359Z,99.90
2018-11-02T15:47:49.350Z,99.90
2018-11-02T15:50:18.275Z,99.90
2018-11-02T15:52:47.183Z,99.90
2018-11-02T15:55:16.122Z,99.90
2018-11-02T15:57:45.065Z,99.90
2018-11-02T16:00:18.268Z,99.90
2018-11-02T16:02:48.625Z,99.90
2018-11-02T16:05:17.715Z,99.90
2018-11-02T16:07:46.649Z,99.90
2018-11-02T16:10:15.635Z,99.90
2018-11-02T16:12:45.021Z,99.90
2018-11-02T16:15:14.038Z,99.90
2018-11-02T16:17:42.991Z,99.90
2018-11-02T16:20:13.688Z,99.90
2018-11-02T16:22:43.231Z,99.90
2018-11-02T16:25:12.586Z,99.90
2018-11-02T16:27:41.839Z,99.90
2018-11-02T16:30:11.304Z,99.90
2018-11-02T16:32:40.320Z,99.90
2018-11-02T16:35:10.365Z,99.90
2018-11-02T16:37:39.898Z,99.90
2018-11-02T16:40:10.875Z,99.90
2018-11-02T16:42:39.850Z,99.90
2018-11-02T16:45:10.237Z,99.90
2018-11-02T16:47:40.486Z,99.90
2018-11-02T16:50:10.605Z,99.90
2018-11-02T16:52:39.535Z,99.90
2018-11-02T16:55:08.859Z,99.90
2018-11-02T16:57:38.208Z,99.90
2018-11-02T17:00:11.199Z,99.90
2018-11-02T17:02:41.012Z,99.90
2018-11-02T17:05:10.123Z,99.90
2018-11-02T17:07:39.385Z,99.90
2018-11-02T17:10:09.476Z,99.90
2018-11-02T17:12:38.878Z,99.90
2018-11-02T17:15:08.328Z,99.90
2018-11-02T17:17:37.367Z,99.90
2018-11-02T17:20:08.722Z,99.90
2018-11-02T17:22:37.671Z,99.90
2018-11-02T17:25:07.583Z,99.90
2018-11-02T17:27:36.941Z,99.90
2018-11-02T17:30:07.254Z,99.90
2018-11-02T17:32:37.946Z,99.90
2018-11-02T17:35:06.995Z,99.90
2018-11-02T17:37:37.005Z,99.90
2018-11-02T17:40:07.531Z,99.90
2018-11-02T17:42:36.492Z,99.90
2018-11-02T17:45:06.298Z,99.90
2018-11-02T17:47:35.419Z,99.90
2018-11-02T17:50:04.372Z,99.90
2018-11-02T17:52:33.683Z,99.90
2018-11-02T17:55:02.623Z,99.90
2018-11-02T17:57:31.628Z,99.90
2018-11-02T18:00:00.618Z,99.90
2018-11-02T18:02:29.636Z,99.90
2018-11-02T18:04:58.591Z,99.90
2018-11-02T18:07:27.569Z,99.90
2018-11-02T18:09:56.489Z,99.90
2018-11-02T18:12:25.586Z,99.90
2018-11-02T18:14:54.420Z,99.90
2018-11-02T18:17:23.419Z,99.90
2018-11-02T18:19:52.334Z,99.90
2018-11-02T18:22:21.505Z,99.90
2018-11-02T18:24:50.322Z,99.90
2018-11-02T18:27:20.014Z,99.90
2018-11-02T18:29:49.848Z,99.90
2018-11-02T18:32:19.732Z,99.90
2018-11-02T18:34:51.157Z,99.90
2018-11-02T18:37:20.105Z,99.90
2018-11-02T18:42:35.058Z,99.90
2018-11-02T18:47:52.468Z,99.90
2018-11-02T18:50:24.866Z,99.90
2018-11-02T18:52:56.964Z,99.90
2018-11-02T18:55:36.237Z,99.90
2018-11-02T18:58:08.446Z,99.90
2018-11-02T19:00:39.373Z,99.90
2018-11-02T19:03:12.162Z,99.90
2018-11-02T19:05:46.668Z,99.90
2018-11-02T19:08:26.470Z,99.90
2018-11-02T19:10:57.962Z,99.90
2018-11-02T19:13:32.817Z,99.90
2018-11-02T19:16:03.576Z,99.90
2018-11-02T19:18:44.214Z,99.90
2018-11-02T19:21:19.408Z,99.90
2018-11-02T19:23:53.159Z,99.90
2018-11-02T19:26:25.474Z,99.90
2018-11-02T19:29:01.382Z,99.90
2018-11-02T19:31:31.480Z,99.90
2018-11-02T19:34:13.436Z,99.90
2018-11-02T19:36:49.307Z,99.90
2018-11-02T19:39:21.801Z,99.90
2018-11-02T19:41:51.276Z,99.90
2018-11-02T19:44:20.964Z,99.90
2018-11-02T19:46:58.167Z,99.90
2018-11-02T19:53:05.775Z,99.90
2018-11-02T19:55:35.428Z,99.90
2018-11-02T19:58:04.379Z,99.90
2018-11-02T20:00:34.439Z,99.90
2018-11-02T20:03:09.467Z,99.90
2018-11-02T20:05:42.210Z,99.90
2018-11-02T20:08:11.151Z,99.90
2018-11-02T20:10:42.171Z,99.90
2018-11-02T20:13:24.575Z,99.90
2018-11-02T20:16:03.774Z,99.90
2018-11-02T20:18:38.079Z,99.90
2018-11-02T20:21:09.005Z,99.90
2018-11-02T20:23:47.512Z,99.90
2018-11-02T20:26:29.184Z,99.90
2018-11-02T20:29:00.783Z,99.90
2018-11-02T20:31:46.445Z,99.90
2018-11-02T20:34:24.470Z,99.90
2018-11-02T20:36:54.834Z,99.90
2018-11-02T20:39:37.278Z,99.90
2018-11-02T20:42:13.559Z,99.90
2018-11-02T20:44:49.963Z,99.90
2018-11-02T20:47:20.585Z,99.90
2018-11-02T20:49:57.874Z,99.90
2018-11-02T20:52:41.268Z,99.90
2018-11-02T20:55:11.662Z,99.90
2018-11-02T20:57:40.903Z,99.90
2018-11-02T21:00:12.417Z,99.90
2018-11-02T21:02:42.462Z,99.90
2018-11-02T21:05:29.113Z,99.90
2018-11-02T21:07:58.113Z,99.90
2018-11-02T21:10:27.356Z,99.90
2018-11-02T21:12:56.331Z,99.90
2018-11-02T21:15:25.927Z,99.90
2018-11-02T21:17:55.129Z,99.90
2018-11-02T21:20:25.269Z,99.90
2018-11-02T21:22:54.202Z,99.90
2018-11-02T21:25:23.132Z,99.90
2018-11-02T21:27:52.058Z,99.90
2018-11-02T21:30:23.293Z,99.90
2018-11-02T21:32:52.892Z,99.90
2018-11-02T21:35:22.504Z,99.90
2018-11-02T21:37:51.706Z,99.90
2018-11-02T21:40:21.928Z,99.90
2018-11-02T21:42:50.963Z,99.90
2018-11-02T21:45:21.234Z,99.90
2018-11-02T21:47:50.242Z,99.90
2018-11-02T21:50:19.724Z,99.90
2018-11-02T21:52:48.699Z,99.90
2018-11-02T21:55:17.628Z,99.90
2018-11-02T21:57:46.576Z,99.90
2018-11-02T22:00:18.925Z,99.90
2018-11-02T22:02:48.196Z,99.90
2018-11-02T22:05:17.159Z,99.90
2018-11-02T22:07:47.492Z,99.90
2018-11-02T22:10:17.351Z,99.90
2018-11-02T22:12:46.303Z,99.90
2018-11-02T22:15:15.746Z,99.90
2018-11-02T22:17:44.727Z,99.90
2018-11-02T22:20:14.657Z,99.90
2018-11-02T22:22:43.606Z,99.90
2018-11-02T22:25:14.724Z,99.90
2018-11-02T22:27:46.248Z,99.90
2018-11-02T22:30:22.630Z,99.90
2018-11-02T22:32:56.336Z,99.90
2018-11-02T22:35:25.877Z,99.90
2018-11-02T22:37:54.834Z,99.90
2018-11-02T22:40:23.778Z,99.90
2018-11-02T22:42:52.955Z,99.90
2018-11-02T22:45:21.917Z,99.90
2018-11-02T22:47:56.060Z,99.90
2018-11-02T22:50:25.027Z,99.90
2018-11-02T22:52:53.950Z,99.90
2018-11-02T22:55:22.885Z,99.90
2018-11-02T22:57:51.839Z,99.90
2018-11-02T23:00:20.778Z,99.90
2018-11-02T23:02:50.037Z,99.90
2018-11-02T23:05:18.963Z,99.90
2018-11-02T23:07:47.905Z,99.90
2018-11-02T23:10:16.854Z,99.90
2018-11-02T23:12:45.800Z,99.90
2018-11-02T23:15:15.556Z,99.90
2018-11-02T23:17:44.507Z,99.90
2018-11-02T23:20:14.583Z,99.90
2018-11-02T23:22:43.542Z,99.90
2018-11-02T23:25:12.934Z,99.90
2018-11-02T23:27:43.338Z,99.90
2018-11-02T23:30:12.557Z,99.90
2018-11-02T23:32:41.686Z,99.90
2018-11-02T23:35:10.707Z,99.90
2018-11-02T23:37:39.710Z,99.90
2018-11-02T23:40:09.448Z,99.90
2018-11-02T23:42:38.385Z,99.90
2018-11-02T23:45:08.047Z,99.90
2018-11-02T23:47:37.059Z,99.90
2018-11-02T23:50:07.918Z,99.90
2018-11-02T23:52:36.858Z,99.90
2018-11-02T23:55:06.334Z,99.90
2018-11-02T23:57:35.254Z,99.90
